createdAt,value
2019-02-19T00:02:26.361Z,0.40
2019-02-19T00:04:55.089Z,0.50
2019-02-19T00:07:23.848Z,0.50
2019-02-19T00:09:52.677Z,0.50
2019-02-19T00:12:23.344Z,0.60
2019-02-19T00:14:51.893Z,0.70
2019-02-19T00:17:20.649Z,0.60
2019-02-19T00:19:49.382Z,0.60
2019-02-19T00:22:18.189Z,0.70
2019-02-19T00:24:46.985Z,0.60
2019-02-19T00:27:15.745Z,0.70
2019-02-19T00:29:44.558Z,0.60
2019-02-19T00:32:13.317Z,0.50
2019-02-19T00:34:42.046Z,0.60
2019-02-19T00:37:10.801Z,0.50
2019-02-19T00:39:39.574Z,0.50
2019-02-19T00:42:08.327Z,0.40
2019-02-19T00:44:37.145Z,0.40
2019-02-19T00:47:05.912Z,0.40
2019-02-19T00:49:34.712Z,0.40
2019-02-19T00:52:03.464Z,0.40
2019-02-19T00:54:32.238Z,0.50
2019-02-19T00:57:00.981Z,0.50
2019-02-19T00:59:29.740Z,0.50
2019-02-19T01:01:58.516Z,0.50
2019-02-19T01:04:27.294Z,0.50
2019-02-19T01:06:56.132Z,0.50
2019-02-19T01:09:25.057Z,0.40
2019-02-19T01:11:53.792Z,0.40
2019-02-19T01:14:22.553Z,0.40
2019-02-19T01:16:51.389Z,0.40
2019-02-19T01:19:20.158Z,0.40
2019-02-19T01:21:48.933Z,0.40
2019-02-19T01:24:17.660Z,0.40
2019-02-19T01:26:46.435Z,0.40
2019-02-19T01:29:15.297Z,0.40
2019-02-19T01:31:44.034Z,0.50
2019-02-19T01:34:12.796Z,0.50
2019-02-19T01:36:41.561Z,0.50
2019-02-19T01:39:10.379Z,0.50
2019-02-19T01:41:39.132Z,0.60
2019-02-19T01:44:07.880Z,0.60
2019-02-19T01:46:36.656Z,0.60
2019-02-19T01:49:05.382Z,0.70
2019-02-19T01:51:34.224Z,0.60
2019-02-19T01:54:03.020Z,0.60
2019-02-19T01:56:31.777Z,0.60
2019-02-19T01:59:00.508Z,0.50
2019-02-19T02:01:29.273Z,0.60
2019-02-19T02:03:58.110Z,0.60
2019-02-19T02:06:26.873Z,0.70
2019-02-19T02:08:55.601Z,0.70
2019-02-19T02:11:24.361Z,0.70
2019-02-19T02:13:53.089Z,0.70
2019-02-19T02:16:21.859Z,0.70
2019-02-19T02:18:50.591Z,0.60
2019-02-19T02:21:19.500Z,0.70
2019-02-19T02:23:48.230Z,0.70
2019-02-19T02:26:17.007Z,0.70
2019-02-19T02:28:45.761Z,0.80
2019-02-19T02:31:14.615Z,0.80
2019-02-19T02:33:43.365Z,0.90
2019-02-19T02:36:12.098Z,0.90
2019-02-19T02:38:40.930Z,0.90
2019-02-19T02:41:09.730Z,0.90
2019-02-19T02:43:38.584Z,0.80
2019-02-19T02:46:07.339Z,0.80
2019-02-19T02:48:36.170Z,0.70
2019-02-19T02:51:04.905Z,0.70
2019-02-19T02:53:33.677Z,0.70
2019-02-19T02:56:02.428Z,0.70
2019-02-19T02:58:31.469Z,0.70
2019-02-19T03:01:00.201Z,0.70
2019-02-19T03:03:28.994Z,0.60
2019-02-19T03:06:11.895Z,0.60
2019-02-19T03:08:40.702Z,0.70
2019-02-19T03:11:09.426Z,0.70
2019-02-19T03:13:38.190Z,0.70
2019-02-19T03:16:06.990Z,0.60
2019-02-19T03:18:35.781Z,0.60
2019-02-19T03:21:04.594Z,0.60
2019-02-19T03:23:33.393Z,0.60
2019-02-19T03:26:02.149Z,0.60
2019-02-19T03:28:30.961Z,0.60
2019-02-19T03:30:59.821Z,0.60
2019-02-19T03:33:28.542Z,0.60
2019-02-19T03:35:57.303Z,0.70
2019-02-19T03:38:26.118Z,0.70
2019-02-19T03:40:54.881Z,0.60
2019-02-19T03:43:25.254Z,0.60
2019-02-19T03:45:54.013Z,0.70
2019-02-19T03:48:22.742Z,0.70
2019-02-19T03:50:51.505Z,0.70
2019-02-19T03:53:20.237Z,0.70
2019-02-19T03:55:49.107Z,0.70
2019-02-19T03:58:17.884Z,0.80
2019-02-19T04:00:46.618Z,0.80
2019-02-19T04:03:15.485Z,0.80
2019-02-19T04:05:44.209Z,0.80
2019-02-19T04:08:12.975Z,0.80
2019-02-19T04:10:41.725Z,0.80
2019-02-19T04:13:10.514Z,0.80
2019-02-19T04:15:39.320Z,0.80
2019-02-19T04:18:08.079Z,0.80
2019-02-19T04:20:36.803Z,0.80
2019-02-19T04:23:05.564Z,0.80
2019-02-19T04:25:34.317Z,0.80
2019-02-19T04:28:04.725Z,0.80
2019-02-19T04:30:33.456Z,0.80
2019-02-19T04:33:02.189Z,0.80
2019-02-19T04:35:30.957Z,0.70
2019-02-19T04:37:59.763Z,0.70
2019-02-19T04:40:28.619Z,0.70
2019-02-19T04:42:57.353Z,0.70
2019-02-19T04:45:26.193Z,0.70
2019-02-19T04:47:54.921Z,0.70
2019-02-19T04:50:23.681Z,0.70
2019-02-19T04:52:52.479Z,0.70
2019-02-19T04:55:21.321Z,0.60
2019-02-19T04:57:50.054Z,0.60
2019-02-19T05:00:18.817Z,0.60
2019-02-19T05:02:47.549Z,0.60
2019-02-19T05:05:16.305Z,0.60
2019-02-19T05:07:45.141Z,0.60
2019-02-19T05:10:13.901Z,0.50
2019-02-19T05:12:42.691Z,0.50
2019-02-19T05:15:11.916Z,0.50
2019-02-19T05:17:42.566Z,0.50
2019-02-19T05:20:11.154Z,0.50
2019-02-19T05:22:39.993Z,0.40
2019-02-19T05:25:08.747Z,0.40
2019-02-19T05:27:37.543Z,0.40
2019-02-19T05:30:09.575Z,0.40
2019-02-19T05:32:38.340Z,0.30
2019-02-19T05:35:08.071Z,0.30
2019-02-19T05:37:36.830Z,0.30
2019-02-19T05:40:07.774Z,0.30
2019-02-19T05:42:36.601Z,0.20
2019-02-19T05:45:08.126Z,0.20
2019-02-19T05:47:36.946Z,0.20
2019-02-19T05:50:07.774Z,0.20
2019-02-19T05:52:36.540Z,0.10
2019-02-19T05:55:07.317Z,0.10
2019-02-19T05:57:36.053Z,0.10
2019-02-19T06:00:07.565Z,0.10
2019-02-19T06:02:36.364Z,0.00
2019-02-19T06:05:07.406Z,0.00
2019-02-19T06:07:39.376Z,0.00
2019-02-19T06:10:10.928Z,0.00
2019-02-19T06:12:39.842Z,0.00
2019-02-19T06:15:11.433Z,-0.10
2019-02-19T06:17:40.170Z,-0.10
2019-02-19T06:20:09.529Z,-0.10
2019-02-19T06:22:38.254Z,-0.10
2019-02-19T06:25:09.115Z,-0.10
2019-02-19T06:27:38.030Z,0.00
2019-02-19T06:30:12.634Z,0.00
2019-02-19T06:32:41.404Z,0.00
2019-02-19T06:35:10.374Z,0.00
2019-02-19T06:37:39.184Z,0.00
2019-02-19T06:40:10.898Z,0.00
2019-02-19T06:42:39.666Z,0.00
2019-02-19T06:45:08.613Z,0.00
2019-02-19T06:47:37.476Z,0.10
2019-02-19T06:50:06.493Z,0.10
2019-02-19T06:52:35.253Z,0.10
2019-02-19T06:55:04.077Z,0.20
2019-02-19T06:57:32.845Z,0.20
2019-02-19T07:00:01.645Z,0.30
2019-02-19T07:02:38.069Z,0.30
2019-02-19T07:05:08.572Z,0.40
2019-02-19T07:07:37.373Z,0.50
2019-02-19T07:10:07.009Z,0.60
2019-02-19T07:12:35.849Z,0.70
2019-02-19T07:15:06.567Z,0.80
2019-02-19T07:17:35.394Z,0.90
2019-02-19T07:20:05.829Z,1.10
2019-02-19T07:22:34.610Z,1.20
2019-02-19T07:25:03.544Z,1.20
2019-02-19T07:27:32.285Z,1.40
2019-02-19T07:30:01.078Z,1.40
2019-02-19T07:32:29.889Z,1.40
2019-02-19T07:34:58.661Z,1.50
2019-02-19T07:37:27.397Z,1.60
2019-02-19T07:39:56.225Z,1.70
2019-02-19T07:42:24.957Z,1.80
2019-02-19T07:44:53.725Z,2.00
2019-02-19T07:47:24.664Z,2.20
2019-02-19T07:49:52.960Z,2.30
2019-02-19T07:52:21.773Z,2.40
2019-02-19T07:54:50.604Z,2.60
2019-02-19T07:57:19.445Z,2.70
2019-02-19T07:59:48.205Z,2.80
2019-02-19T08:02:16.941Z,3.10
2019-02-19T08:04:45.721Z,3.20
2019-02-19T08:07:14.497Z,3.30
2019-02-19T08:09:43.225Z,3.40
2019-02-19T08:12:12.054Z,3.60
2019-02-19T08:14:40.733Z,3.60
2019-02-19T08:17:09.490Z,3.80
2019-02-19T08:19:38.330Z,3.90
2019-02-19T08:22:07.088Z,4.00
2019-02-19T08:24:35.906Z,4.10
2019-02-19T08:27:04.669Z,4.30
2019-02-19T08:29:33.477Z,4.40
2019-02-19T08:32:02.301Z,4.50
2019-02-19T08:34:31.094Z,4.60
2019-02-19T08:36:59.991Z,4.80
2019-02-19T08:39:30.438Z,4.90
2019-02-19T08:41:59.193Z,5.10
2019-02-19T08:44:27.996Z,5.30
2019-02-19T08:46:56.842Z,5.50
2019-02-19T08:49:25.605Z,5.70
2019-02-19T08:51:56.282Z,6.00
2019-02-19T08:54:24.763Z,6.20
2019-02-19T08:56:53.475Z,6.30
2019-02-19T08:59:22.238Z,6.50
2019-02-19T09:01:50.970Z,6.50
2019-02-19T09:04:19.735Z,6.50
2019-02-19T09:06:48.472Z,6.60
2019-02-19T09:09:17.297Z,6.90
2019-02-19T09:11:46.098Z,7.10
2019-02-19T09:14:14.926Z,7.30
2019-02-19T09:16:43.662Z,7.40
2019-02-19T09:19:12.417Z,7.60
2019-02-19T09:21:41.236Z,7.80
2019-02-19T09:24:10.003Z,8.00
2019-02-19T09:26:38.810Z,8.00
2019-02-19T09:29:07.549Z,8.10
2019-02-19T09:31:36.317Z,8.20
2019-02-19T09:34:05.049Z,8.20
2019-02-19T09:36:33.813Z,8.30
2019-02-19T09:39:02.722Z,8.40
2019-02-19T09:41:31.493Z,8.60
2019-02-19T09:44:00.221Z,8.60
2019-02-19T09:46:29.049Z,8.60
2019-02-19T09:48:57.797Z,8.70
2019-02-19T09:51:26.553Z,8.80
2019-02-19T09:53:55.286Z,8.70
2019-02-19T09:56:24.162Z,8.70
2019-02-19T09:58:52.890Z,8.80
2019-02-19T10:01:21.653Z,8.80
2019-02-19T10:03:50.379Z,8.80
2019-02-19T10:06:19.209Z,8.70
2019-02-19T10:08:47.990Z,8.80
2019-02-19T10:11:16.721Z,9.10
2019-02-19T10:13:45.489Z,9.10
2019-02-19T10:16:14.327Z,9.30
2019-02-19T10:18:43.085Z,9.40
2019-02-19T10:21:11.814Z,9.90
2019-02-19T10:23:40.626Z,9.90
2019-02-19T10:26:09.530Z,9.90
2019-02-19T10:28:38.289Z,9.80
2019-02-19T10:31:07.015Z,9.70
2019-02-19T10:33:35.853Z,9.80
2019-02-19T10:36:04.634Z,9.80
2019-02-19T10:38:33.417Z,9.90
2019-02-19T10:41:02.237Z,10.00
2019-02-19T10:43:30.985Z,10.00
2019-02-19T10:45:59.741Z,10.10
2019-02-19T10:48:28.590Z,10.20
2019-02-19T10:50:57.401Z,10.20
2019-02-19T10:53:26.206Z,10.20
2019-02-19T10:55:54.977Z,10.20
2019-02-19T10:58:23.713Z,10.50
2019-02-19T11:00:52.553Z,10.60
2019-02-19T11:03:21.285Z,10.70
2019-02-19T11:05:50.045Z,10.80
2019-02-19T11:08:18.869Z,10.90
2019-02-19T11:10:47.637Z,10.80
2019-02-19T11:13:16.404Z,10.80
2019-02-19T11:15:45.231Z,10.90
2019-02-19T11:18:14.001Z,11.10
2019-02-19T11:20:42.733Z,11.30
2019-02-19T11:23:11.497Z,11.40
2019-02-19T11:25:40.286Z,11.60
2019-02-19T11:28:09.135Z,11.80
2019-02-19T11:30:37.910Z,11.70
2019-02-19T11:33:06.682Z,11.60
2019-02-19T11:35:35.443Z,11.70
2019-02-19T11:38:04.267Z,11.60
2019-02-19T11:40:33.113Z,11.70
2019-02-19T11:43:01.879Z,11.70
2019-02-19T11:45:30.689Z,11.70
2019-02-19T11:47:59.456Z,11.70
2019-02-19T11:50:28.301Z,11.70
2019-02-19T11:52:57.037Z,11.60
2019-02-19T11:55:25.869Z,11.60
2019-02-19T11:57:54.609Z,11.50
2019-02-19T12:00:40.143Z,11.50
2019-02-19T12:03:08.881Z,11.40
2019-02-19T12:05:37.660Z,11.40
2019-02-19T12:08:06.406Z,11.30
2019-02-19T12:10:35.169Z,11.30
2019-02-19T12:13:03.901Z,11.20
2019-02-19T12:15:35.275Z,11.10
2019-02-19T12:18:04.652Z,11.10
2019-02-19T12:20:33.429Z,11.10
2019-02-19T12:23:02.165Z,11.10
2019-02-19T12:25:31.778Z,11.00
2019-02-19T12:28:00.531Z,11.00
2019-02-19T12:30:29.304Z,11.10
2019-02-19T12:32:58.174Z,11.20
2019-02-19T12:35:26.905Z,11.10
2019-02-19T12:37:55.673Z,11.10
2019-02-19T12:40:24.414Z,11.10
2019-02-19T12:42:53.182Z,11.10
2019-02-19T12:45:21.910Z,11.00
2019-02-19T12:47:50.741Z,11.00
2019-02-19T12:50:19.682Z,11.00
2019-02-19T12:52:48.473Z,10.80
2019-02-19T12:55:17.213Z,10.90
2019-02-19T12:57:46.052Z,11.00
2019-02-19T13:00:17.098Z,11.10
2019-02-19T13:02:45.882Z,11.10
2019-02-19T13:05:15.868Z,11.00
2019-02-19T13:07:44.785Z,10.90
2019-02-19T13:10:13.722Z,11.00
2019-02-19T13:12:42.494Z,10.90
2019-02-19T13:15:14.277Z,11.00
2019-02-19T13:17:43.020Z,11.10
2019-02-19T13:20:14.057Z,11.20
2019-02-19T13:22:42.787Z,11.30
2019-02-19T13:25:12.146Z,11.40
2019-02-19T13:27:40.895Z,11.50
2019-02-19T13:30:17.609Z,11.50
2019-02-19T13:32:46.341Z,11.40
2019-02-19T13:35:15.308Z,11.40
2019-02-19T13:37:44.120Z,11.30
2019-02-19T13:40:15.559Z,11.20
2019-02-19T13:42:44.298Z,11.10
2019-02-19T13:45:15.178Z,11.20
2019-02-19T13:47:43.905Z,11.20
2019-02-19T13:50:21.143Z,11.10
2019-02-19T13:53:06.824Z,11.30
2019-02-19T13:55:37.233Z,11.40
2019-02-19T13:58:05.965Z,11.50
2019-02-19T14:00:42.681Z,11.40
2019-02-19T14:03:11.470Z,11.40
2019-02-19T14:05:40.264Z,11.40
2019-02-19T14:08:14.668Z,11.40
2019-02-19T14:10:39.386Z,11.40
2019-02-19T14:13:08.153Z,11.30
2019-02-19T14:15:38.522Z,11.30
2019-02-19T14:18:08.925Z,11.30
2019-02-19T14:20:57.349Z,11.20
2019-02-19T14:23:44.295Z,11.10
2019-02-19T14:26:29.976Z,11.10
2019-02-19T14:29:08.107Z,11.00
2019-02-19T14:31:41.138Z,11.10
2019-02-19T14:34:14.345Z,11.00
2019-02-19T14:36:44.708Z,11.20
2019-02-19T14:39:33.289Z,11.20
2019-02-19T14:42:03.669Z,11.30
2019-02-19T14:44:34.073Z,11.20
2019-02-19T14:47:04.444Z,11.20
2019-02-19T14:49:51.390Z,11.20
2019-02-19T14:52:36.847Z,11.20
2019-02-19T14:55:07.755Z,11.20
2019-02-19T14:57:47.045Z,11.20
2019-02-19T15:00:17.481Z,11.20
2019-02-19T15:03:04.395Z,11.20
2019-02-19T15:05:37.469Z,11.10
2019-02-19T15:08:10.637Z,11.10
2019-02-19T15:10:43.789Z,11.10
2019-02-19T15:13:29.397Z,11.00
2019-02-19T15:16:11.888Z,11.10
2019-02-19T15:18:45.233Z,11.10
2019-02-19T15:21:15.641Z,11.10
2019-02-19T15:23:54.938Z,11.00
2019-02-19T15:26:25.349Z,10.90
2019-02-19T15:28:55.725Z,10.90
2019-02-19T15:31:42.381Z,11.00
2019-02-19T15:34:31.044Z,10.90
2019-02-19T15:37:19.341Z,10.80
2019-02-19T15:39:50.113Z,10.70
2019-02-19T15:42:20.517Z,10.60
2019-02-19T15:45:07.129Z,10.50
2019-02-19T15:47:52.854Z,10.50
2019-02-19T15:50:39.611Z,10.50
2019-02-19T15:53:21.912Z,10.60
2019-02-19T15:56:04.371Z,10.60
2019-02-19T15:58:51.188Z,10.40
2019-02-19T16:01:24.408Z,10.50
2019-02-19T16:04:04.129Z,10.50
2019-02-19T16:06:49.759Z,10.40
2019-02-19T16:09:26.426Z,10.20
2019-02-19T16:11:56.806Z,10.10
2019-02-19T16:14:32.909Z,9.90
2019-02-19T16:17:03.290Z,9.80
2019-02-19T16:19:36.492Z,9.60
2019-02-19T16:22:25.333Z,9.50
2019-02-19T16:24:55.751Z,9.40
2019-02-19T16:27:31.661Z,9.20
2019-02-19T16:30:02.067Z,9.20
2019-02-19T16:32:41.244Z,9.10
2019-02-19T16:35:26.762Z,9.00
2019-02-19T16:38:02.930Z,8.90
2019-02-19T16:40:33.402Z,8.80
2019-02-19T16:43:12.805Z,8.70
2019-02-19T16:45:43.213Z,8.60
2019-02-19T16:48:29.786Z,8.60
2019-02-19T16:51:16.481Z,8.50
2019-02-19T16:53:49.610Z,8.40
2019-02-19T16:56:20.027Z,8.40
2019-02-19T16:58:53.545Z,8.30
2019-02-19T17:01:33.192Z,8.20
2019-02-19T17:04:18.821Z,8.10
2019-02-19T17:06:51.901Z,8.10
2019-02-19T17:09:31.070Z,8.00
2019-02-19T17:12:10.725Z,7.90
2019-02-19T17:14:44.087Z,7.80
2019-02-19T17:17:14.486Z,7.70
2019-02-19T17:20:01.150Z,7.60
2019-02-19T17:22:31.557Z,7.60
2019-02-19T17:25:07.986Z,7.50
2019-02-19T17:27:44.429Z,7.40
2019-02-19T17:30:23.668Z,7.40
2019-02-19T17:32:54.073Z,7.30
2019-02-19T17:35:27.477Z,7.30
2019-02-19T17:38:14.216Z,7.20
2019-02-19T17:40:51.277Z,7.20
2019-02-19T17:43:21.807Z,7.10
2019-02-19T17:45:54.617Z,7.00
2019-02-19T17:48:30.987Z,7.00
2019-02-19T17:51:01.359Z,7.00
2019-02-19T17:53:31.774Z,6.90
2019-02-19T17:56:08.184Z,6.90
2019-02-19T17:58:54.000Z,6.90
2019-02-19T18:01:30.089Z,6.80
2019-02-19T18:04:12.584Z,6.90
2019-02-19T18:06:58.073Z,6.90
2019-02-19T18:09:31.182Z,6.90
2019-02-19T18:12:10.746Z,6.90
2019-02-19T18:14:47.162Z,6.90
2019-02-19T18:17:17.544Z,7.00
2019-02-19T18:19:46.297Z,7.00
2019-02-19T18:22:15.030Z,7.00
2019-02-19T18:24:43.802Z,7.10
2019-02-19T18:27:12.653Z,7.30
2019-02-19T18:29:41.497Z,7.60
2019-02-19T18:32:10.229Z,7.70
2019-02-19T18:34:38.989Z,7.80
2019-02-19T18:37:07.730Z,7.90
2019-02-19T18:39:36.584Z,7.90
2019-02-19T18:42:05.476Z,7.90
2019-02-19T18:44:34.173Z,7.90
2019-02-19T18:47:02.955Z,7.90
2019-02-19T18:49:33.205Z,7.90
2019-02-19T18:52:02.038Z,7.70
2019-02-19T18:54:30.782Z,7.60
2019-02-19T18:56:59.906Z,7.60
2019-02-19T18:59:28.636Z,7.50
2019-02-19T19:01:57.406Z,7.40
2019-02-19T19:04:26.215Z,7.40
2019-02-19T19:06:54.974Z,7.40
2019-02-19T19:09:23.722Z,7.50
2019-02-19T19:11:52.773Z,7.40
2019-02-19T19:14:21.589Z,7.40
2019-02-19T19:16:57.566Z,7.40
2019-02-19T19:19:26.419Z,7.30
2019-02-19T19:22:15.851Z,7.40
2019-02-19T19:24:46.210Z,7.40
2019-02-19T19:27:17.720Z,7.40
2019-02-19T19:29:47.117Z,7.40
2019-02-19T19:32:15.885Z,7.30
2019-02-19T19:34:44.630Z,7.20
2019-02-19T19:37:14.077Z,7.20
2019-02-19T19:39:44.385Z,7.20
2019-02-19T19:42:13.491Z,7.10
2019-02-19T19:44:44.092Z,7.10
2019-02-19T19:47:12.839Z,7.00
2019-02-19T19:49:41.685Z,6.90
2019-02-19T19:52:10.513Z,7.00
2019-02-19T19:54:41.335Z,7.00
2019-02-19T19:57:10.169Z,7.10
2019-02-19T19:59:41.860Z,7.20
2019-02-19T20:02:11.667Z,7.30
2019-02-19T20:04:40.733Z,7.20
2019-02-19T20:07:09.610Z,7.20
2019-02-19T20:09:40.261Z,7.20
2019-02-19T20:12:12.233Z,7.20
2019-02-19T20:14:43.223Z,7.20
2019-02-19T20:17:11.997Z,7.10
2019-02-19T20:19:42.566Z,7.00
2019-02-19T20:22:13.209Z,6.90
2019-02-19T20:24:42.403Z,6.80
2019-02-19T20:27:12.838Z,6.70
2019-02-19T20:29:41.649Z,6.70
2019-02-19T20:32:13.478Z,6.60
2019-02-19T20:34:45.260Z,6.60
2019-02-19T20:37:14.611Z,6.60
2019-02-19T20:39:48.953Z,6.60
2019-02-19T20:42:19.278Z,6.60
2019-02-19T20:44:53.658Z,6.60
2019-02-19T20:47:22.626Z,6.70
2019-02-19T20:49:53.510Z,6.70
2019-02-19T20:52:22.382Z,6.70
2019-02-19T20:54:51.117Z,6.60
2019-02-19T20:57:19.891Z,6.60
2019-02-19T20:59:48.732Z,6.50
2019-02-19T21:02:17.640Z,6.40
2019-02-19T21:04:47.251Z,6.40
2019-02-19T21:07:16.093Z,6.40
2019-02-19T21:09:44.858Z,6.40
2019-02-19T21:12:13.601Z,6.40
2019-02-19T21:14:42.390Z,6.30
2019-02-19T21:17:11.125Z,6.20
2019-02-19T21:19:40.355Z,6.20
2019-02-19T21:22:09.682Z,6.20
2019-02-19T21:24:38.492Z,6.10
2019-02-19T21:27:13.347Z,6.20
2019-02-19T21:29:37.991Z,6.20
2019-02-19T21:32:08.229Z,6.20
2019-02-19T21:34:36.958Z,6.20
2019-02-19T21:37:05.705Z,6.10
2019-02-19T21:39:34.505Z,6.10
2019-02-19T21:42:03.253Z,6.10
2019-02-19T21:44:31.984Z,6.10
2019-02-19T21:47:02.591Z,6.10
2019-02-19T21:49:31.321Z,6.10
2019-02-19T21:52:00.087Z,6.10
2019-02-19T21:54:28.936Z,6.10
2019-02-19T21:56:57.826Z,6.10
2019-02-19T21:59:26.581Z,6.00
2019-02-19T22:01:55.418Z,6.00
2019-02-19T22:04:24.160Z,5.90
2019-02-19T22:07:00.430Z,5.90
2019-02-19T22:09:28.974Z,5.80
2019-02-19T22:11:57.810Z,5.80
2019-02-19T22:14:26.561Z,5.80
2019-02-19T22:16:55.308Z,5.80
2019-02-19T22:19:24.118Z,5.90
2019-02-19T22:22:03.008Z,5.90
2019-02-19T22:24:37.054Z,5.90
2019-02-19T22:27:06.426Z,5.90
2019-02-19T22:29:35.193Z,6.00
2019-02-19T22:32:04.701Z,5.90
2019-02-19T22:34:33.468Z,5.90
2019-02-19T22:37:02.203Z,5.90
2019-02-19T22:39:30.972Z,5.90
2019-02-19T22:42:00.848Z,5.90
2019-02-19T22:44:29.677Z,5.90
2019-02-19T22:46:58.426Z,5.90
2019-02-19T22:49:27.191Z,5.90
2019-02-19T22:51:55.926Z,5.90
2019-02-19T22:54:26.340Z,5.90
2019-02-19T22:56:55.074Z,5.90
2019-02-19T22:59:23.937Z,5.90
2019-02-19T23:01:54.451Z,6.00
2019-02-19T23:04:23.261Z,6.00
2019-02-19T23:06:52.002Z,6.00
2019-02-19T23:09:20.769Z,6.00
2019-02-19T23:11:49.581Z,6.00
2019-02-19T23:14:18.413Z,5.90
2019-02-19T23:16:47.177Z,6.00
2019-02-19T23:19:16.665Z,6.00
2019-02-19T23:21:45.434Z,6.00
2019-02-19T23:24:18.705Z,6.00
2019-02-19T23:26:47.519Z,6.00
2019-02-19T23:29:16.331Z,6.00
2019-02-19T23:31:45.090Z,6.00
2019-02-19T23:34:13.829Z,6.00
2019-02-19T23:36:44.234Z,6.00
2019-02-19T23:39:12.976Z,6.00
2019-02-19T23:41:41.742Z,6.00
2019-02-19T23:44:10.486Z,6.00
2019-02-19T23:46:39.404Z,6.00
2019-02-19T23:49:08.132Z,6.00
2019-02-19T23:51:36.983Z,6.00
2019-02-19T23:54:05.784Z,6.00
2019-02-19T23:56:34.522Z,5.90
2019-02-19T23:59:03.289Z,6.00
